Seawolf — WDE7235 — position and weather

sailwx.info

Track history (hours):
 
Tides and Currents Weather Stations Pressure Air Temp Water Temp Dewpoint Dewpoint Depression Visibility Wind Speed Wind Dir Waves Ship Positions

Oceanographic research ship Seawolf (United States)

Owner: School of Marine and Atmospheric Sciences, Stony Brook University, NY, Stony Brook, NY. More information available from US FCC via Universal Licensing System and Coast Guard Vessel Documentation Center.

Last reported at 2019-Oct-07 20:20 UTC. Time now 2019-Oct-17 15:40 UTC.
Position N 41°06' W 072°31'.
Warning: this ship's position is 9 days out of date.

Length 24 m; draft 3.5 m.

Type: Other ship. MMSI: 367390740.

Date/timePositionNaut miles runAvg speedWind from/ knotsBaromVisibWave heightAir tempDewpointWater temp
2019-Oct-07 20:20N 41°06' W 072°31'16 8.9
2019-Oct-07 18:30N 41°09' W 072°10'5 8.9
2019-Oct-07 17:59N 41°09' W 072°04'4 8.9
2019-Oct-07 17:30N 41°08' W 071°59'9 4.4
2019-Oct-07 15:21N 40°59' W 071°57'9 0.2
2019-Oct-05 21:07N 41°08' W 071°57'1 9.0
2019-Oct-05 20:59N 41°08' W 071°59'8 8.7
2019-Oct-05 20:04N 41°09' W 072°09'1 8.5
2019-Oct-05 20:00N 41°09' W 072°10'4 7.8
2019-Oct-05 19:30N 41°11' W 072°15'11 7.7
2019-Oct-05 18:04N 41°08' W 072°29'2 8.1
2019-Oct-05 17:52N 41°07' W 072°31'  
2019-Sep-28 11:03N 41°03' W 072°53'5 9.7
2019-Sep-28 10:31N 41°04' W 072°47'3 9.6
2019-Sep-28 10:15N 41°05' W 072°44'2 9.3
2019-Sep-28 10:00N 41°06' W 072°41'5 9.1
2019-Sep-28 09:30N 41°07' W 072°35'5 8.5
2019-Sep-28 08:57N 41°08' W 072°29'4 7.7
2019-Sep-28 08:27N 41°10' W 072°24'3 6.5
2019-Sep-28 07:59N 41°10' W 072°20'3 6.1
2019-Sep-28 07:29N 41°11' W 072°16'3 6.7
2019-Sep-28 07:00N 41°12' W 072°12'3 5.8
2019-Sep-28 06:30N 41°13' W 072°09'3 5.9
2019-Sep-28 06:00N 41°14' W 072°05'3 5.9
2019-Sep-28 05:30N 41°15' W 072°01'4 7.3
2019-Sep-28 05:00N 41°15' W 071°56'4 8.2
2019-Sep-28 04:30N 41°16' W 071°51'42 8.6
2019-Sep-27 23:35N 41°28' W 070°57'1 8.2
2019-Sep-27 23:25N 41°29' W 070°56'3 8.2
2019-Sep-27 23:00N 41°31' W 070°52'4 7.5
2019-Sep-27 22:30N 41°35' W 070°53'  
Track history (hours):
 
Tides and Currents Weather Stations Pressure Air Temp Water Temp Dewpoint Dewpoint Depression Visibility Wind Speed Wind Dir Waves Ship Positions

Oceanographic research ship Seawolf (United States)

Owner: School of Marine and Atmospheric Sciences, Stony Brook University, NY, Stony Brook, NY. More information available from US FCC via Universal Licensing System and Coast Guard Vessel Documentation Center.

Last reported at 2019-Oct-07 20:20 UTC. Time now 2019-Oct-17 15:40 UTC.
Position N 41°06' W 072°31'.
Warning: this ship's position is 9 days out of date.

Length 24 m; draft 3.5 m.

Type: Other ship. MMSI: 367390740.

Date/timePositionNaut miles runAvg speedWind from/ knotsBaromVisibWave heightAir tempDewpointWater temp
2019-Oct-07 20:20N 41°06' W 072°31'16 8.9
2019-Oct-07 18:30N 41°09' W 072°10'5 8.9
2019-Oct-07 17:59N 41°09' W 072°04'4 8.9
2019-Oct-07 17:30N 41°08' W 071°59'9 4.4
2019-Oct-07 15:21N 40°59' W 071°57'9 0.2
2019-Oct-05 21:07N 41°08' W 071°57'1 9.0
2019-Oct-05 20:59N 41°08' W 071°59'8 8.7
2019-Oct-05 20:04N 41°09' W 072°09'1 8.5
2019-Oct-05 20:00N 41°09' W 072°10'4 7.8
2019-Oct-05 19:30N 41°11' W 072°15'11 7.7
2019-Oct-05 18:04N 41°08' W 072°29'2 8.1
2019-Oct-05 17:52N 41°07' W 072°31'  
2019-Sep-28 11:03N 41°03' W 072°53'5 9.7
2019-Sep-28 10:31N 41°04' W 072°47'3 9.6
2019-Sep-28 10:15N 41°05' W 072°44'2 9.3
2019-Sep-28 10:00N 41°06' W 072°41'5 9.1
2019-Sep-28 09:30N 41°07' W 072°35'5 8.5
2019-Sep-28 08:57N 41°08' W 072°29'4 7.7
2019-Sep-28 08:27N 41°10' W 072°24'3 6.5
2019-Sep-28 07:59N 41°10' W 072°20'3 6.1
2019-Sep-28 07:29N 41°11' W 072°16'3 6.7
2019-Sep-28 07:00N 41°12' W 072°12'3 5.8
2019-Sep-28 06:30N 41°13' W 072°09'3 5.9
2019-Sep-28 06:00N 41°14' W 072°05'3 5.9
2019-Sep-28 05:30N 41°15' W 072°01'4 7.3
2019-Sep-28 05:00N 41°15' W 071°56'4 8.2
2019-Sep-28 04:30N 41°16' W 071°51'42 8.6
2019-Sep-27 23:35N 41°28' W 070°57'1 8.2
2019-Sep-27 23:25N 41°29' W 070°56'3 8.2
2019-Sep-27 23:00N 41°31' W 070°52'4 7.5
2019-Sep-27 22:30N 41°35' W 070°53'  

Dump ship's entire track history